Time;durP1;ratioP1;P1;durP2;ratioP2;P2;SDS_P1;SDS_P2;PMS_P1;PMS_P2;Temp;Humidity;BMP_temperature;BMP_pressure;BME280_temperature;BME280_humidity;BME280_pressure;Samples;Min_cycle;Max_cycle;Signal;HPM_P1;HPM_P2
2023/07/04 00:01:10;;;;;;;9.77;3.28;;;;;;;23.01;42.09;100934.28;5096567;28;20052;-65
2023/07/04 00:03:40;;;;;;;7.18;2.63;;;;;;;22.92;42.31;100933.84;5097066;28;20051;-66
2023/07/04 00:06:10;;;;;;;9.75;3.67;;;;;;;22.90;42.47;100921.38;5095999;28;20062;-65
2023/07/04 00:08:38;;;;;;;10.73;3.67;;;;;;;22.67;42.73;100927.25;5085686;28;20048;-66
2023/07/04 00:11:07;;;;;;;10.18;3.47;;;;;;;22.88;42.65;100926.56;5074955;28;20065;-65
2023/07/04 00:13:35;;;;;;;8.70;3.70;;;;;;;22.84;42.54;100928.59;5077093;28;20061;-66
2023/07/04 00:16:11;;;;;;;9.30;3.85;;;;;;;22.86;42.75;100928.97;5090960;28;20044;-67
2023/07/04 00:18:39;;;;;;;12.63;4.07;;;;;;;23.04;42.22;100930.72;5075561;28;20523;-65
2023/07/04 00:21:12;;;;;;;8.73;3.85;;;;;;;22.73;42.92;100933.31;5075108;28;20047;-68
2023/07/04 00:23:45;;;;;;;11.20;3.42;;;;;;;22.64;43.19;100936.47;5074816;28;20059;-65
2023/07/04 00:26:16;;;;;;;8.43;3.58;;;;;;;22.80;42.80;100936.16;5076105;28;20071;-66
2023/07/04 00:28:45;;;;;;;12.60;3.65;;;;;;;22.64;42.92;100932.84;5061677;28;20076;-66
2023/07/04 00:31:19;;;;;;;10.25;2.92;;;;;;;22.68;43.46;100925.25;5087872;28;20045;-67
2023/07/04 00:33:47;;;;;;;8.93;3.40;;;;;;;22.48;42.53;100933.06;5087995;28;20056;-67
2023/07/04 00:36:16;;;;;;;11.00;3.40;;;;;;;21.19;47.16;100944.44;5091109;28;20563;-69
2023/07/04 00:38:48;;;;;;;7.20;3.08;;;;;;;21.92;45.85;100938.13;5108233;28;20053;-65
2023/07/04 00:41:21;;;;;;;9.73;3.10;;;;;;;21.94;44.97;100942.19;5076004;28;20606;-65
2023/07/04 00:43:59;;;;;;;9.73;3.28;;;;;;;21.87;45.88;100936.50;5074769;28;20037;-67
2023/07/04 00:46:52;;;;;;;10.57;3.85;;;;;;;21.88;45.19;100931.72;5108326;27;20047;-65
2023/07/04 00:49:27;;;;;;;10.05;3.08;;;;;;;21.95;45.89;100934.59;5078054;28;20507;-66
2023/07/04 00:52:06;;;;;;;9.40;3.13;;;;;;;21.72;45.83;100940.31;5074758;28;20377;-65
2023/07/04 00:54:47;;;;;;;8.23;3.28;;;;;;;21.76;45.73;100937.56;5075787;28;20045;-65
2023/07/04 00:57:15;;;;;;;7.90;3.00;;;;;;;22.01;45.50;100938.66;5074529;28;20541;-65
2023/07/04 00:59:44;;;;;;;10.35;3.47;;;;;;;21.76;45.74;100935.53;5074172;28;20123;-66
2023/07/04 01:02:15;;;;;;;10.60;3.63;;;;;;;22.04;45.37;100933.06;5055538;28;20049;-66
2023/07/04 01:04:44;;;;;;;8.57;3.05;;;;;;;22.40;44.32;100937.03;5054624;28;20049;-67
2023/07/04 01:07:31;;;;;;;12.98;3.25;;;;;;;22.37;44.25;100932.16;5086793;28;20144;-66
2023/07/04 01:10:06;;;;;;;11.10;3.25;;;;;;;22.47;44.09;100942.72;5069477;28;20060;-65
2023/07/04 01:12:33;;;;;;;12.20;3.10;;;;;;;22.44;44.00;100940.66;5081865;28;20056;-66
2023/07/04 01:15:01;;;;;;;9.50;3.25;;;;;;;22.44;44.05;100940.66;5087272;28;20060;-65
2023/07/04 01:17:29;;;;;;;7.53;3.05;;;;;;;22.33;44.03;100934.16;5073695;28;20044;-65
2023/07/04 01:19:58;;;;;;;11.57;3.20;;;;;;;22.33;44.02;100934.94;5074243;28;20385;-65
2023/07/04 01:22:31;;;;;;;8.70;3.17;;;;;;;21.82;44.28;100936.84;5075560;28;20290;-65
2023/07/04 01:25:35;;;;;;;11.50;3.25;;;;;;;20.90;48.18;100945.97;5075377;28;20067;-65
2023/07/04 01:28:03;;;;;;;10.98;3.53;;;;;;;21.04;47.24;100948.22;5074889;28;20737;-65
2023/07/04 01:30:32;;;;;;;10.57;3.25;;;;;;;21.54;46.55;100956.09;5075171;28;20064;-65
2023/07/04 01:33:00;;;;;;;17.42;3.72;;;;;;;20.73;47.33;100948.53;5073335;28;20052;-65
2023/07/04 01:35:28;;;;;;;8.52;2.92;;;;;;;20.72;48.12;100958.91;5085806;28;20048;-64
2023/07/04 01:37:56;;;;;;;9.82;3.30;;;;;;;21.40;47.16;100961.53;5076262;28;20056;-66
2023/07/04 01:40:24;;;;;;;10.68;3.35;;;;;;;21.58;46.00;100962.56;5093258;28;20052;-65
2023/07/04 01:42:52;;;;;;;8.43;2.88;;;;;;;21.33;47.03;100960.63;5093858;28;20055;-65
2023/07/04 01:45:19;;;;;;;9.55;3.42;;;;;;;21.55;46.29;100960.50;5089386;28;20039;-66
2023/07/04 01:47:48;;;;;;;8.60;3.45;;;;;;;21.51;46.23;100954.06;5074592;28;20491;-65
2023/07/04 01:50:15;;;;;;;12.57;3.83;;;;;;;20.71;47.82;100956.47;5074743;28;20077;-65
2023/07/04 01:52:43;;;;;;;11.98;3.10;;;;;;;20.97;48.23;100957.28;5074672;28;20045;-66
2023/07/04 01:55:12;;;;;;;15.13;4.13;;;;;;;21.48;47.08;100959.63;5074874;28;20052;-66
2023/07/04 01:57:40;;;;;;;12.63;3.73;;;;;;;21.06;47.75;100957.84;5074547;28;20163;-64
2023/07/04 02:00:09;;;;;;;13.18;3.00;;;;;;;21.66;46.03;100944.63;5073500;28;20059;-65
2023/07/04 02:02:56;;;;;;;10.43;3.13;;;;;;;20.86;48.05;100958.31;5074283;28;20063;-64
2023/07/04 02:05:24;;;;;;;9.40;3.42;;;;;;;19.78;51.48;100964.38;5074234;28;20047;-65
2023/07/04 02:07:51;;;;;;;12.23;3.55;;;;;;;20.42;50.02;100958.00;5074434;28;20060;-66
2023/07/04 02:10:19;;;;;;;13.25;3.20;;;;;;;19.96;51.06;100957.13;5074850;28;20048;-66
2023/07/04 02:12:46;;;;;;;11.75;3.22;;;;;;;20.14;51.07;100960.25;5081999;28;20151;-65
2023/07/04 02:15:14;;;;;;;14.48;3.47;;;;;;;20.09;51.88;100960.56;5085332;28;20410;-66
2023/07/04 02:17:42;;;;;;;13.15;3.50;;;;;;;20.82;49.12;100952.66;5073984;28;20048;-65
2023/07/04 02:20:10;;;;;;;12.15;3.90;;;;;;;21.06;48.94;100946.66;5072434;28;20049;-64
2023/07/04 02:22:41;;;;;;;14.52;3.78;;;;;;;20.35;49.96;100946.69;5072701;28;20053;-64
2023/07/04 02:25:10;;;;;;;12.25;3.65;;;;;;;21.03;48.79;100943.78;5074695;28;20048;-65
2023/07/04 02:27:37;;;;;;;11.70;3.42;;;;;;;21.26;48.82;100950.13;5088733;28;20053;-65
2023/07/04 02:30:05;;;;;;;17.45;4.18;;;;;;;20.58;49.39;100943.84;5125132;27;20044;-65
2023/07/04 02:32:32;;;;;;;14.88;3.78;;;;;;;19.65;52.14;100942.56;5092058;28;20063;-65
2023/07/04 02:35:00;;;;;;;11.75;3.58;;;;;;;20.18;51.79;100938.78;5075189;28;20094;-65
2023/07/04 02:37:28;;;;;;;13.88;3.85;;;;;;;20.99;49.92;100932.53;5078950;28;20048;-65
2023/07/04 02:39:56;;;;;;;8.93;3.40;;;;;;;20.95;49.75;100939.25;5071815;28;20075;-64
2023/07/04 02:42:25;;;;;;;;;;;;;;;20.46;51.50;100932.88;5072857;28;20427;-65
2023/07/04 02:44:54;;;;;;;10.05;3.40;;;;;;;21.14;49.35;100931.56;5074926;28;20397;-64
2023/07/04 02:47:26;;;;;;;12.75;3.42;;;;;;;21.71;47.79;100932.25;5092758;28;20468;-65
2023/07/04 02:49:58;;;;;;;13.90;3.88;;;;;;;21.40;48.17;100939.09;5077358;28;20056;-64
2023/07/04 02:52:27;;;;;;;12.30;3.78;;;;;;;21.72;47.57;100929.09;5072321;28;20071;-64
2023/07/04 02:54:54;;;;;;;10.00;3.20;;;;;;;21.88;47.06;100926.09;5072105;28;20496;-66
2023/07/04 02:57:24;;;;;;;13.90;3.78;;;;;;;21.99;46.67;100922.19;5072442;28;20063;-65
2023/07/04 02:59:52;;;;;;;12.15;3.58;;;;;;;22.04;46.41;100921.84;5055481;28;20056;-64
2023/07/04 03:02:19;;;;;;;9.95;3.45;;;;;;;22.01;46.61;100925.44;5068766;28;20067;-66
2023/07/04 03:04:51;;;;;;;9.77;3.30;;;;;;;22.12;46.35;100922.72;5067666;28;20048;-65
2023/07/04 03:07:22;;;;;;;9.98;3.50;;;;;;;22.22;46.02;100917.22;5052827;28;20048;-65
2023/07/04 03:09:51;;;;;;;12.70;3.47;;;;;;;22.18;45.95;100919.19;5074049;28;20053;-64
2023/07/04 03:12:22;;;;;;;13.38;4.00;;;;;;;22.23;45.94;100924.44;5087529;28;20071;-64
2023/07/04 03:14:49;;;;;;;11.30;3.42;;;;;;;22.23;45.57;100918.81;5088182;28;20045;-65
2023/07/04 03:17:17;;;;;;;11.18;3.75;;;;;;;22.14;45.81;100911.94;5099046;28;20051;-65
2023/07/04 03:19:47;;;;;;;9.63;3.38;;;;;;;22.10;45.82;100923.13;5092597;28;20051;-66
2023/07/04 03:22:16;;;;;;;11.60;3.47;;;;;;;22.06;45.93;100916.66;5099097;28;20052;-64
2023/07/04 03:24:44;;;;;;;11.38;3.53;;;;;;;22.19;45.66;100920.00;5069748;28;20048;-65
2023/07/04 03:27:12;;;;;;;13.50;3.58;;;;;;;22.06;45.87;100919.47;5035832;28;20511;-65
2023/07/04 03:29:41;;;;;;;10.68;3.38;;;;;;;22.07;46.02;100906.25;5052207;28;20424;-65
2023/07/04 03:32:09;;;;;;;10.90;3.50;;;;;;;22.11;45.90;100909.88;5088004;28;20067;-64
2023/07/04 03:34:36;;;;;;;14.48;3.75;;;;;;;22.06;45.76;100915.84;5078242;28;20051;-65
2023/07/04 03:37:03;;;;;;;10.25;3.50;;;;;;;21.99;46.04;100915.78;5069324;28;20059;-66
2023/07/04 03:39:31;;;;;;;13.63;3.65;;;;;;;22.00;46.06;100909.78;5066630;28;20061;-64
2023/07/04 03:41:58;;;;;;;8.02;3.05;;;;;;;22.18;45.57;100910.75;5058854;28;20428;-65
2023/07/04 03:44:26;;;;;;;9.60;3.47;;;;;;;22.15;45.82;100907.94;5075597;28;20080;-65
2023/07/04 03:46:54;;;;;;;15.45;3.50;;;;;;;22.22;45.74;100906.00;5094991;28;20055;-65
2023/07/04 03:49:21;;;;;;;10.05;3.30;;;;;;;22.20;45.70;100914.00;5061823;28;20048;-64
2023/07/04 03:51:49;;;;;;;8.80;3.00;;;;;;;22.14;45.84;100907.09;5076241;28;20051;-64
2023/07/04 03:54:17;;;;;;;8.13;2.92;;;;;;;22.11;46.09;100904.28;5073812;27;20484;-64
2023/07/04 03:56:46;;;;;;;9.18;3.40;;;;;;;22.11;46.13;100907.88;5075410;28;20048;-65
2023/07/04 03:59:14;;;;;;;14.05;3.42;;;;;;;22.12;45.97;100901.06;5075129;28;20407;-65
2023/07/04 04:01:41;;;;;;;13.32;3.45;;;;;;;22.03;46.10;100902.59;5074593;28;20078;-67
2023/07/04 04:04:09;;;;;;;14.70;3.70;;;;;;;22.07;46.17;100907.03;5075319;28;20417;-66
2023/07/04 04:06:36;;;;;;;12.15;3.83;;;;;;;22.00;46.27;100895.75;5076843;28;20048;-66
2023/07/04 04:09:04;;;;;;;9.45;3.28;;;;;;;21.93;46.52;100908.91;5108487;27;20044;-66
2023/07/04 04:11:32;;;;;;;10.90;3.28;;;;;;;22.02;46.37;100904.59;5058227;28;20068;-66
2023/07/04 04:13:59;;;;;;;9.40;3.20;;;;;;;22.01;46.36;100907.78;5093894;28;20063;-66
2023/07/04 04:16:27;;;;;;;11.10;3.17;;;;;;;22.08;46.33;100902.25;5090619;28;20049;-66
2023/07/04 04:18:54;;;;;;;13.35;3.70;;;;;;;21.97;46.41;100907.75;5076525;28;20131;-66
2023/07/04 04:21:22;;;;;;;11.57;3.00;;;;;;;22.00;46.34;100909.78;5060459;28;20053;-62
2023/07/04 04:23:52;;;;;;;9.50;3.78;;;;;;;22.00;46.10;100909.78;5069341;28;20435;-61
2023/07/04 04:26:20;;;;;;;;;;;;;;;21.72;46.71;100912.28;5075827;28;20055;-58
2023/07/04 04:28:47;;;;;;;11.45;3.30;;;;;;;21.95;46.21;100912.16;5060657;28;19936;-62
2023/07/04 04:31:16;;;;;;;11.15;3.38;;;;;;;22.03;46.11;100919.44;5064518;28;20340;-61
2023/07/04 04:33:44;;;;;;;11.40;3.50;;;;;;;22.04;46.20;100924.66;5076025;28;20044;-61
2023/07/04 04:36:11;;;;;;;11.43;3.65;;;;;;;21.97;46.37;100916.16;5084028;28;20049;-61
2023/07/04 04:38:38;;;;;;;12.30;3.92;;;;;;;21.96;46.54;100920.19;5074707;28;20056;-61
2023/07/04 04:41:08;;;;;;;12.25;3.65;;;;;;;21.88;46.63;100917.69;5108380;28;20052;-61
2023/07/04 04:43:35;;;;;;;12.35;3.63;;;;;;;21.59;47.54;100915.69;5057157;28;20056;-61
2023/07/04 04:46:03;;;;;;;13.77;4.93;;;;;;;21.85;47.10;100916.44;5087424;28;20052;-62
2023/07/04 04:48:35;;;;;;;10.10;3.33;;;;;;;21.87;46.84;100922.47;5095845;28;20501;-61
2023/07/04 04:51:07;;;;;;;13.35;4.82;;;;;;;21.87;47.03;100911.25;5096095;28;20043;-61
2023/07/04 04:53:35;;;;;;;9.38;3.78;;;;;;;21.45;48.08;100913.53;5093420;28;20063;-61
2023/07/04 04:56:04;;;;;;;14.05;3.88;;;;;;;21.47;48.10;100918.75;5075783;28;20056;-61
2023/07/04 04:58:31;;;;;;;10.07;3.50;;;;;;;21.74;47.60;100909.09;5075805;28;20059;-62
2023/07/04 05:01:07;;;;;;;12.07;3.90;;;;;;;21.79;47.88;100906.75;5075204;28;20052;-61
2023/07/04 05:03:34;;;;;;;12.95;3.45;;;;;;;21.96;46.64;100906.16;5075860;28;20732;-61
2023/07/04 05:06:03;;;;;;;12.18;3.75;;;;;;;21.94;47.23;100914.13;5075838;28;20044;-61
2023/07/04 05:08:30;;;;;;;14.40;3.63;;;;;;;21.98;47.29;100919.78;5107956;28;20044;-62
2023/07/04 05:11:06;;;;;;;11.60;3.78;;;;;;;22.03;46.85;100916.63;5075403;28;20068;-62
2023/07/04 05:13:34;;;;;;;15.25;4.03;;;;;;;21.95;47.33;100920.56;5075811;28;20052;-61
2023/07/04 05:16:07;;;;;;;13.30;3.50;;;;;;;21.90;47.29;100921.69;5076852;28;20059;-61
2023/07/04 05:18:36;;;;;;;11.57;3.45;;;;;;;21.99;47.35;100915.78;5077933;28;20052;-61
2023/07/04 05:21:06;;;;;;;16.58;3.78;;;;;;;22.09;47.04;100917.88;5094204;28;20065;-62
2023/07/04 05:23:35;;;;;;;14.98;3.92;;;;;;;22.12;47.10;100914.31;5095537;28;20114;-61
2023/07/04 05:26:04;;;;;;;14.47;3.83;;;;;;;22.04;47.33;100924.66;5094064;28;20055;-62
2023/07/04 05:28:32;;;;;;;10.43;3.30;;;;;;;21.75;47.66;100925.53;5082999;28;20052;-60
2023/07/04 05:31:00;;;;;;;15.05;3.78;;;;;;;21.93;47.87;100911.72;5075146;28;20408;-61
2023/07/04 05:33:28;;;;;;;14.05;3.53;;;;;;;22.05;47.30;100912.25;5062332;28;20425;-60
2023/07/04 05:36:19;;;;;;;19.27;3.88;;;;;;;22.17;47.19;100920.38;5083643;28;20047;-62
2023/07/04 05:38:53;;;;;;;13.55;3.85;;;;;;;22.35;47.05;100914.94;5077552;28;20404;-62
2023/07/04 05:41:31;;;;;;;12.07;3.50;;;;;;;22.48;46.61;100912.59;5070686;28;20057;-63
2023/07/04 05:44:04;;;;;;;13.13;3.70;;;;;;;22.41;46.66;100915.34;5072750;28;20503;-62
2023/07/04 05:46:31;;;;;;;14.15;4.07;;;;;;;21.95;47.84;100915.75;5080744;28;20040;-63
2023/07/04 05:48:59;;;;;;;12.40;3.70;;;;;;;22.25;47.35;100919.25;5074468;28;20048;-60
2023/07/04 05:51:27;;;;;;;15.35;3.50;;;;;;;22.00;47.38;100917.41;5074415;28;20041;-61
2023/07/04 05:53:55;;;;;;;15.68;4.03;;;;;;;21.92;48.16;100922.13;5074768;28;20382;-62
2023/07/04 05:56:28;;;;;;;13.43;3.95;;;;;;;21.66;49.00;100921.41;5073692;28;20166;-59
2023/07/04 05:58:58;;;;;;;13.88;4.03;;;;;;;21.91;48.58;100920.53;5074505;28;20059;-61
2023/07/04 06:01:32;;;;;;;13.35;3.97;;;;;;;22.35;47.09;100921.34;5074003;28;20052;-61
2023/07/04 06:04:04;;;;;;;14.98;3.88;;;;;;;22.30;47.32;100915.25;5073823;28;20055;-61
2023/07/04 06:06:40;;;;;;;15.43;4.10;;;;;;;22.28;47.50;100921.28;5074374;28;20048;-61
2023/07/04 06:09:12;;;;;;;11.57;3.45;;;;;;;22.46;47.53;100918.63;5073535;28;20040;-61
2023/07/04 06:11:45;;;;;;;16.45;4.32;;;;;;;22.51;47.23;100923.88;5073979;28;20064;-61
2023/07/04 06:14:20;;;;;;;14.95;4.25;;;;;;;22.42;47.65;100903.75;5068120;28;20053;-60
2023/07/04 06:16:48;;;;;;;16.15;3.55;;;;;;;22.48;47.76;100918.22;5068335;28;20045;-59
2023/07/04 06:19:16;;;;;;;14.48;4.15;;;;;;;22.52;47.68;100908.66;5073493;28;20040;-61
2023/07/04 06:21:43;;;;;;;14.60;3.95;;;;;;;22.67;48.21;100907.59;5087271;28;20522;-61
2023/07/04 06:24:11;;;;;;;12.73;3.55;;;;;;;22.78;48.21;100908.47;5093764;28;20063;-60
2023/07/04 06:26:39;;;;;;;13.65;3.60;;;;;;;22.74;48.21;100904.00;5090255;28;20048;-58
2023/07/04 06:29:06;;;;;;;14.07;3.85;;;;;;;22.71;48.29;100907.63;5073450;28;20056;-60
2023/07/04 06:31:33;;;;;;;10.65;3.47;;;;;;;22.69;48.11;100910.81;5073189;28;20094;-61
2023/07/04 06:34:01;;;;;;;17.05;6.13;;;;;;;22.69;48.15;100902.38;5071330;28;20060;-60
2023/07/04 06:36:29;;;;;;;12.63;3.72;;;;;;;22.70;47.78;100906.78;5074670;28;20040;-61
2023/07/04 06:39:00;;;;;;;13.43;3.28;;;;;;;22.77;47.51;100900.44;5072279;28;20048;-61
2023/07/04 06:41:27;;;;;;;10.65;3.90;;;;;;;22.75;48.98;100898.00;5078519;28;20055;-61
2023/07/04 06:43:57;;;;;;;14.63;4.47;;;;;;;22.86;48.78;100900.88;5055717;28;20041;-60
2023/07/04 06:46:28;;;;;;;18.38;3.90;;;;;;;22.87;48.94;100903.31;5073032;28;20041;-61
2023/07/04 06:48:55;;;;;;;15.85;3.97;;;;;;;22.94;48.96;100919.41;5071231;28;20064;-58
2023/07/04 06:51:26;;;;;;;17.45;4.10;;;;;;;22.95;47.53;100915.38;5069027;28;20052;-60
2023/07/04 06:53:53;;;;;;;14.95;3.95;;;;;;;22.66;47.67;100917.22;5069025;28;20895;-60
2023/07/04 06:56:22;;;;;;;13.68;3.47;;;;;;;22.65;47.33;100923.22;5075484;28;20051;-60
2023/07/04 06:58:51;;;;;;;;;;;;;;;22.74;46.59;100924.50;5066350;28;20056;-59
2023/07/04 07:01:22;;;;;;;16.23;4.43;;;;;;;22.68;46.21;100925.25;5067023;28;19928;-59
2023/07/04 07:03:50;;;;;;;20.08;3.83;;;;;;;22.77;46.03;100931.34;5056900;28;20075;-59
2023/07/04 07:06:19;;;;;;;15.60;3.88;;;;;;;22.34;47.03;100928.16;5080989;28;20040;-59
2023/07/04 07:08:47;;;;;;;15.15;3.38;;;;;;;22.51;46.37;100931.50;5076801;28;20519;-57
2023/07/04 07:11:16;;;;;;;16.90;4.50;;;;;;;22.52;46.62;100931.13;5058411;28;20060;-58
2023/07/04 07:13:44;;;;;;;12.52;3.97;;;;;;;22.60;46.01;100927.19;5072736;28;20048;-59
2023/07/04 07:16:17;;;;;;;18.08;4.68;;;;;;;22.32;46.93;100924.94;5096656;28;20057;-56
2023/07/04 07:18:45;;;;;;;14.30;4.30;;;;;;;22.78;45.92;100930.13;5098797;28;20067;-59
2023/07/04 07:21:15;;;;;;;14.80;3.92;;;;;;;22.93;44.78;100927.03;5072764;28;20683;-58
2023/07/04 07:23:42;;;;;;;17.45;4.20;;;;;;;22.80;44.53;100927.75;5075785;28;20055;-59
2023/07/04 07:26:11;;;;;;;11.32;4.03;;;;;;;22.94;44.02;100931.47;5067796;28;20060;-58
2023/07/04 07:28:39;;;;;;;14.48;3.83;;;;;;;23.15;43.55;100927.97;5064719;28;20052;-60
2023/07/04 07:31:19;;;;;;;12.35;3.45;;;;;;;23.12;42.51;100937.16;5074729;28;20051;-59
2023/07/04 07:33:48;;;;;;;13.33;3.47;;;;;;;23.24;41.68;100920.78;5066992;28;20054;-59
2023/07/04 07:36:20;;;;;;;14.10;3.47;;;;;;;23.23;41.37;100930.41;5071312;28;20044;-59
2023/07/04 07:38:48;;;;;;;15.57;4.25;;;;;;;22.90;42.00;100924.19;5080235;28;20052;-59
2023/07/04 07:41:16;;;;;;;13.57;3.45;;;;;;;22.90;42.58;100913.78;5065231;28;20048;-56
2023/07/04 07:43:44;;;;;;;13.18;3.67;;;;;;;22.57;43.35;100916.75;5077212;28;20067;-59
2023/07/04 07:46:13;;;;;;;10.35;3.28;;;;;;;23.04;42.66;100916.66;5102630;28;20045;-60
2023/07/04 07:48:42;;;;;;;15.85;3.85;;;;;;;23.14;42.40;100910.28;5070351;28;20064;-56
2023/07/04 07:51:12;;;;;;;12.05;3.40;;;;;;;23.40;41.98;100900.78;5099896;28;20056;-61
2023/07/04 07:53:41;;;;;;;13.95;3.58;;;;;;;23.51;41.77;100912.09;5075220;28;20551;-59
2023/07/04 07:56:09;;;;;;;11.52;3.13;;;;;;;23.69;41.03;100910.16;5071720;28;20044;-58
2023/07/04 07:58:37;;;;;;;16.60;7.97;;;;;;;23.74;40.49;100907.75;5071975;28;20040;-59
2023/07/04 08:01:11;;;;;;;15.63;4.38;;;;;;;23.56;41.29;100904.06;5068326;28;20037;-59
2023/07/04 08:03:39;;;;;;;15.38;4.30;;;;;;;23.76;40.99;100901.72;5069957;28;20052;-60
2023/07/04 08:06:09;;;;;;;12.48;5.53;;;;;;;23.82;40.52;100900.13;5071761;28;20048;-58
2023/07/04 08:08:36;;;;;;;8.65;3.60;;;;;;;23.77;40.86;100894.88;5073628;28;20047;-60
2023/07/04 08:11:03;;;;;;;18.65;3.42;;;;;;;23.73;40.99;100897.69;5069239;28;20056;-60
2023/07/04 08:13:31;;;;;;;14.15;4.18;;;;;;;23.53;40.37;100881.56;5076882;28;20040;-60
2023/07/04 08:15:59;;;;;;;17.23;3.83;;;;;;;23.59;40.85;100892.03;5076082;28;20052;-58
2023/07/04 08:18:26;;;;;;;16.45;4.28;;;;;;;23.33;41.29;100889.53;5068988;28;20037;-59
2023/07/04 08:21:02;;;;;;;17.55;3.53;;;;;;;23.64;40.78;100885.22;5075058;28;20045;-64
2023/07/04 08:23:30;;;;;;;10.30;4.18;;;;;;;23.78;39.90;100888.06;5070459;28;20056;-61
2023/07/04 08:25:57;;;;;;;11.77;3.67;;;;;;;23.79;40.18;100884.88;5074592;28;20047;-61
2023/07/04 08:28:27;;;;;;;11.45;3.50;;;;;;;23.75;40.34;100886.03;5054179;28;20538;-58
2023/07/04 08:31:02;;;;;;;;;;;;;;;23.91;40.05;100887.28;5070849;28;20976;-61
2023/07/04 08:33:29;;;;;;;20.63;7.13;;;;;;;23.81;39.99;100887.28;5063880;28;19920;-60
2023/07/04 08:35:59;;;;;;;13.23;4.07;;;;;;;23.98;39.69;100883.69;5065106;28;20044;-59
2023/07/04 08:38:27;;;;;;;11.32;3.47;;;;;;;23.52;40.19;100886.38;5097001;28;20075;-60
2023/07/04 08:40:55;;;;;;;17.77;3.90;;;;;;;23.02;40.49;100885.34;5063102;28;20044;-60
2023/07/04 08:44:12;;;;;;;17.45;4.63;;;;;;;23.26;41.21;100873.41;5064861;28;20037;-61
2023/07/04 08:46:43;;;;;;;10.77;3.35;;;;;;;23.39;40.84;100871.09;5058269;28;20097;-62
2023/07/04 08:49:22;;;;;;;13.60;4.07;;;;;;;23.62;40.25;100870.75;5057071;28;20518;-60
2023/07/04 08:52:08;;;;;;;11.70;4.25;;;;;;;23.72;39.76;100870.78;5098795;28;20048;-60
2023/07/04 08:54:35;;;;;;;18.25;6.22;;;;;;;23.95;39.55;100876.03;5082855;28;20052;-61
2023/07/04 08:57:28;;;;;;;17.88;4.85;;;;;;;24.04;38.79;100874.47;5066978;28;20048;-60
2023/07/04 09:00:06;;;;;;;12.75;4.47;;;;;;;23.99;39.00;100865.59;5086798;28;20036;-61
2023/07/04 09:02:33;;;;;;;15.30;5.45;;;;;;;24.16;38.59;100873.28;5071973;28;20163;-63
2023/07/04 09:05:23;;;;;;;18.70;8.73;;;;;;;24.36;38.77;100871.66;5072350;28;20040;-60
2023/07/04 09:08:26;;;;;;;14.73;5.00;;;;;;;24.47;38.14;100856.38;5073063;28;20059;-61
2023/07/04 09:10:58;;;;;;;13.30;3.78;;;;;;;24.52;38.36;100864.41;5050728;28;20044;-60
2023/07/04 09:13:40;;;;;;;15.73;4.35;;;;;;;24.51;38.25;100856.38;5067001;28;20056;-59
2023/07/04 09:16:12;;;;;;;16.80;3.92;;;;;;;24.30;38.28;100851.53;5061890;28;20071;-60
2023/07/04 09:19:00;;;;;;;15.82;3.33;;;;;;;24.13;38.92;100852.34;5066757;28;20044;-58
2023/07/04 09:21:28;;;;;;;11.00;3.53;;;;;;;24.33;38.94;100862.03;5065125;28;20547;-59
2023/07/04 09:23:59;;;;;;;10.32;3.95;;;;;;;24.59;38.47;100851.53;5058915;28;20052;-61
2023/07/04 09:26:39;;;;;;;17.73;4.18;;;;;;;24.63;38.63;100855.97;5063366;28;20052;-60
2023/07/04 09:29:07;;;;;;;11.40;3.67;;;;;;;24.67;38.41;100851.09;5073585;28;20047;-61
2023/07/04 09:31:38;;;;;;;12.13;3.70;;;;;;;24.42;38.65;100848.34;5072167;28;20400;-61
2023/07/04 09:34:26;;;;;;;11.07;3.65;;;;;;;24.61;38.77;100844.28;5073539;27;20067;-59
2023/07/04 09:36:54;;;;;;;16.65;3.67;;;;;;;24.49;38.94;100842.72;5101372;28;20044;-59
2023/07/04 09:39:21;;;;;;;11.70;4.03;;;;;;;24.67;38.90;100844.69;5075322;28;20047;-60
2023/07/04 09:41:59;;;;;;;13.40;3.72;;;;;;;24.71;38.31;100845.50;5077593;28;20055;-60
2023/07/04 09:44:32;;;;;;;16.75;3.88;;;;;;;24.65;38.65;100838.66;5067414;28;20041;-60
2023/07/04 09:47:00;;;;;;;11.48;3.90;;;;;;;24.29;38.95;100847.13;5075107;28;20053;-59
2023/07/04 09:49:36;;;;;;;12.90;4.47;;;;;;;24.31;39.29;100844.72;5071643;28;20052;-60
2023/07/04 09:52:11;;;;;;;8.95;3.35;;;;;;;24.27;39.33;100848.72;5066070;28;20057;-61
2023/07/04 09:54:40;;;;;;;12.52;3.83;;;;;;;24.41;38.95;100852.34;5067798;28;20048;-60
2023/07/04 09:57:23;;;;;;;10.18;4.05;;;;;;;24.48;38.70;100843.09;5072147;28;20055;-60
2023/07/04 09:59:52;;;;;;;13.82;3.72;;;;;;;24.58;38.43;100838.66;5100396;28;20072;-60
2023/07/04 10:02:24;;;;;;;12.32;4.40;;;;;;;24.68;38.13;100832.19;5073472;28;20506;-61
2023/07/04 10:04:53;;;;;;;12.75;5.03;;;;;;;24.65;38.75;100842.28;5085976;28;20063;-58
2023/07/04 10:07:23;;;;;;;11.40;4.70;;;;;;;25.02;38.05;100831.31;5099203;28;20048;-59
2023/07/04 10:09:58;;;;;;;12.82;4.07;;;;;;;25.14;37.99;100828.03;5075562;28;20048;-59
2023/07/04 10:12:28;;;;;;;13.35;3.83;;;;;;;25.34;37.66;100819.91;5074562;28;20583;-59
2023/07/04 10:14:59;;;;;;;11.77;3.58;;;;;;;25.60;37.35;100813.72;5076478;28;20051;-61
2023/07/04 10:17:32;;;;;;;10.18;4.00;;;;;;;25.43;37.79;100817.47;5072956;28;20063;-61
2023/07/04 10:20:08;;;;;;;13.43;4.10;;;;;;;25.59;37.75;100814.97;5066424;28;20459;-60
2023/07/04 10:22:45;;;;;;;16.27;4.38;;;;;;;25.52;37.84;100809.34;5064854;28;20052;-61
2023/07/04 10:25:21;;;;;;;16.25;7.20;;;;;;;25.49;37.97;100808.16;5071636;28;20052;-61
2023/07/04 10:27:52;;;;;;;15.80;7.40;;;;;;;25.34;38.28;100808.63;5070444;28;20392;-61
2023/07/04 10:30:23;;;;;;;14.20;7.22;;;;;;;25.55;37.88;100802.88;5101066;27;20036;-61
2023/07/04 10:33:00;;;;;;;13.43;6.70;;;;;;;25.65;38.18;100802.00;5048166;28;23477;-60
2023/07/04 10:35:30;;;;;;;13.73;6.28;;;;;;;25.59;38.12;100803.66;5053383;28;20056;-59
2023/07/04 10:38:03;;;;;;;15.10;5.30;;;;;;;25.33;38.55;100802.16;5070147;28;20610;-59
2023/07/04 10:40:34;;;;;;;15.18;5.68;;;;;;;25.53;38.47;100800.47;5068111;28;20041;-62
2023/07/04 10:43:13;;;;;;;14.50;7.10;;;;;;;25.68;38.41;100789.09;5065478;28;20048;-65
2023/07/04 10:45:41;;;;;;;13.90;6.20;;;;;;;25.91;37.67;100792.16;5072629;28;20063;-66
2023/07/04 10:48:32;;;;;;;16.00;6.47;;;;;;;26.11;38.17;100782.72;5073995;28;20048;-65
2023/07/04 10:51:08;;;;;;;11.93;4.85;;;;;;;26.08;38.24;100789.19;5101104;28;20063;-67
2023/07/04 10:53:35;;;;;;;14.90;4.57;;;;;;;25.77;38.32;100778.94;5071214;28;20052;-66
2023/07/04 10:56:15;;;;;;;14.75;5.63;;;;;;;25.61;38.96;100786.31;5076451;28;20491;-66
2023/07/04 10:58:45;;;;;;;10.80;5.13;;;;;;;25.74;39.14;100779.78;5071986;28;20048;-66
2023/07/04 11:01:17;;;;;;;;;;;;;;;25.75;39.19;100770.06;5077828;28;20050;-69
2023/07/04 11:03:44;;;;;;;15.60;5.68;;;;;;;25.68;39.31;100775.00;5078795;28;19924;-66
2023/07/04 11:06:22;;;;;;;12.43;6.20;;;;;;;25.61;39.27;100770.22;5070371;28;20506;-66
2023/07/04 11:08:50;;;;;;;11.07;4.72;;;;;;;25.67;39.36;100768.53;5097638;28;20052;-66
2023/07/04 11:11:26;;;;;;;14.25;4.95;;;;;;;25.77;39.01;100764.03;5080698;28;20048;-67
2023/07/04 11:13:57;;;;;;;13.48;5.78;;;;;;;25.96;39.03;100755.78;5076359;28;20051;-67
2023/07/04 11:16:28;;;;;;;13.50;6.70;;;;;;;25.63;38.84;100750.81;5072988;28;20047;-68
2023/07/04 11:19:16;;;;;;;20.45;8.90;;;;;;;24.90;40.01;100746.41;5069696;28;20052;-68
2023/07/04 11:22:04;;;;;;;17.27;6.05;;;;;;;25.50;40.10;100744.09;5063152;28;20076;-67
2023/07/04 11:24:38;;;;;;;16.48;6.97;;;;;;;25.71;39.45;100738.28;5067730;28;20048;-67
2023/07/04 11:27:16;;;;;;;11.90;6.20;;;;;;;25.93;38.97;100741.72;5070393;28;20048;-68
2023/07/04 11:29:57;;;;;;;13.90;6.47;;;;;;;26.08;38.32;100731.94;5068592;28;20080;-68
2023/07/04 11:32:37;;;;;;;14.85;5.63;;;;;;;26.15;38.55;100729.03;5073533;28;20040;-67
2023/07/04 11:35:11;;;;;;;15.85;5.97;;;;;;;26.32;37.95;100725.22;5068487;28;20044;-68
2023/07/04 11:37:52;;;;;;;16.35;5.45;;;;;;;26.20;37.82;100722.94;5075292;28;20055;-68